KPTS/PTS METAR and TAF weather

Enter ICAO airport designator
Station Type Date Time Source
KPTS METAR 2022/06/27 07:55 UTC NOAA

KPTS 270755Z AUTO 00000KT 10SM CLR 16/15 A3028 RMK AO2 T01550147 PWINO


Station Type Date Time Source
KPTS Decoded METAR 2022/06/27 07:55 UTC NOAA

Station name not available
Jun 27, 2022 - 03:55 AM EDT / 2022.06.27 0755 UTC
Wind: Calm:0
Visibility: 10 mile(s):0
Sky conditions: clear
Temperature: 59.9 F (15.5 C)
Dew Point: 58.5 F (14.7 C)
Relative Humidity: 94%
Pressure (altimeter): 30.28 in. Hg (1025 hPa)
ob: KPTS 270755Z AUTO 00000KT 10SM CLR 16/15 A3028 RMK AO2 T01550147 PWINO
cycle: 8

Station Type Date Time Source
KPTS TAF UTC NOAA

Error!

Example: see airport list